• Join FlightAware (Why Join?)
  • Login
  • US Flag 
09:25AM EDT


 

Airport Tracker/Info


-or-


 

Live Flight TrackerFlight Track Log ✈ UAL3767 ✈ 24-Aug-2013 ✈ KORD - KATL

Flight Track Log - Related Links

Times and Time Zones

All times are in EDT time to prevent confusion due to time zone crossing. See the UAL3767 flight status page for this flight to view local times or setup timezone preferences in your user account.

Time Position Orientation Groundspeed Altitude Reporting Facility
EDT Latitude Longitude Course Direction KTS MPH feet Rate Location/Type
09:52AM 41.9000 -87.9333 185° South 199 229 3,500  Level Chicago TRACON
09:53AM 41.8500 -87.9167 166° South 242 278 5,400 2,100 Climbing Chicago TRACON
09:53AM 41.8092 -87.9125 176° South 264 304 7,000 2,880 Climbing Chicago Center
09:54AM 41.7117 -87.9058 177° South 294 338 10,500 3,120 Climbing Chicago Center
09:55AM 41.6261 -87.8975 176° South 305 351 13,500 2,460 Climbing Chicago Center
09:56AM 41.5361 -87.8889 176° South 319 367 15,700 1,560 Climbing Chicago Center
09:57AM 41.3435 -87.6089 185° South  Level Estimated
09:57AM 41.4322 -87.8789 176° South 366 421 16,800  Level Chicago Center
09:59AM 41.3211 -87.8858 183° South 391 450 18,500 1,620 Climbing Chicago Center
10:00AM 41.2072 -87.8919 182° South 404 465 20,200 1,740 Climbing Chicago Center
10:01AM 41.0906 -87.8878 178° South 419 482 22,100 1,320 Climbing Chicago Center
10:02AM 40.9706 -87.8833 178° South 428 493 23,000 420 Climbing Chicago Center
10:03AM 40.8400 -87.8797 179° South 460 529 23,000 180 Level Chicago Center
10:04AM 40.6817 -87.8744 179° South 475 547 23,400 960 Climbing Chicago Center
10:05AM 40.5508 -87.8703 179° South 473 544 25,000 1,500 Climbing Chicago Center
10:06AM 40.4211 -87.8667 179° South 469 540 26,500 1,440 Climbing Chicago Center
10:07AM 40.2922 -87.8714 182° South 465 535 28,000 1,260 Climbing Chicago Center
10:08AM 40.1731 -87.9028 191° South 468 539 29,200 1,200 Climbing Chicago Center
10:09AM 40.0172 -87.9150 183° South 484 557 30,500 960 Climbing Chicago Center
10:10AM 39.8856 -87.9058 177° South 479 551 31,200 1,140 Climbing Chicago Center
10:11AM 39.7525 -87.8964 177° South 481 554 32,900 1,560 Climbing Chicago Center
10:12AM 39.6231 -87.8869 177° South 473 544 34,500 1,020 Climbing Chicago Center
10:13AM 39.4919 -87.8756 176° South 467 537 35,000 240 Climbing Indianapolis Center
10:14AM 39.3322 -87.8636 177° South 489 563 35,000  Level Indianapolis Center
10:15AM 39.1933 -87.8531 177° South 499 574 35,000  Level Indianapolis Center
10:16AM 39.0539 -87.8428 177° South 501 577 35,000  Level Indianapolis Center
10:17AM 38.9158 -87.8328 177° South 498 573 35,000  Level Indianapolis Center
10:18AM 38.7761 -87.8222 177° South 501 577 35,000  Level Indianapolis Center
10:19AM 38.6369 -87.8183 179° South 500 575 35,000  Level Indianapolis Center
10:20AM 38.4692 -87.8294 183° South 503 579 35,000  Level Indianapolis Center
10:21AM 38.3297 -87.8375 183° South 504 580 35,000  Level Indianapolis Center
10:22AM 38.1900 -87.8450 182° South 504 580 35,000  Level Indianapolis Center
10:23AM 38.0508 -87.8531 183° South 503 579 35,000  Level Indianapolis Center
10:24AM 37.9117 -87.8533 180° South 500 575 35,000  Level Indianapolis Center
10:25AM 37.7831 -87.7922 159° South 494 568 35,000  Level Indianapolis Center
10:26AM 37.6511 -87.7028 152° Southeast 490 564 35,000  Level Indianapolis Center
10:27AM 37.5306 -87.6183 151° Southeast 490 564 35,000  Level Indianapolis Center
10:28AM 37.4108 -87.5400 153° Southeast 481 554 35,000  Level Indianapolis Center
10:29AM 37.2897 -87.4572 151° Southeast 488 562 35,000  Level Indianapolis Center
10:30AM 37.1694 -87.3769 152° Southeast 486 559 35,000  Level Indianapolis Center
10:31AM 37.0714 -87.3100 151° Southeast 487 560 35,000  Level Memphis Center
10:32AM 36.9656 -87.2361 151° Southeast 487 560 35,000  Level Memphis Center
10:33AM 36.8447 -87.1553 152° Southeast 487 560 35,000  Level Memphis Center
10:34AM 36.7258 -87.0744 151° Southeast 487 560 35,000 -120 Level Memphis Center
10:35AM 36.6069 -86.9967 152° Southeast 487 560 34,800 -900 Descending Memphis Center
10:36AM 36.4858 -86.9139 151° Southeast 487 560 33,200 -900 Descending Memphis Center
10:37AM 36.3586 -86.8317 152° Southeast 498 573 33,000 -120 Descending Memphis Center
10:38AM 36.2161 -86.7375 152° Southeast 524 603 33,000  Level Memphis Center
10:39AM 36.0992 -86.6581 151° Southeast 509 586 33,000  Level Memphis Center
10:40AM 35.9986 -86.5728 146° Southeast 504 580 33,000  Level Memphis Center
10:41AM 35.8811 -86.4808 148° Southeast 498 573 33,000  Level Memphis Center
10:43AM 35.6086 -86.2583 146° Southeast 508 585 33,000  Level Atlanta Center
10:44AM 35.4933 -86.1686 148° Southeast 500 575 33,000 -240 Level Atlanta Center
10:45AM 35.3781 -86.0739 146° Southeast 500 575 32,600 -1,020 Descending Atlanta Center
10:46AM 35.2586 -85.9819 148° Southeast 500 575 31,000 -1,560 Descending Atlanta Center
10:47AM 35.1494 -85.8906 146° Southeast 493 567 29,500 -1,500 Descending Atlanta Center
10:48AM 35.0358 -85.8042 148° Southeast 487 560 28,000 -1,500 Descending Atlanta Center
10:49AM 34.9347 -85.7236 147° Southeast 463 533 26,500 -1,500 Descending Atlanta Center
10:50AM 34.8397 -85.6483 147° Southeast 439 505 25,000 -1,680 Descending Atlanta Center
10:51AM 34.7447 -85.5758 148° Southeast 416 479 23,200 -1,800 Descending Atlanta Center
10:52AM 34.6497 -85.5008 147° Southeast 411 473 21,400 -1,800 Descending Atlanta Center
10:53AM 34.5608 -85.4311 147° Southeast 406 467 19,600 -1,800 Descending Atlanta Center
10:54AM 34.4717 -85.3617 147° Southeast 395 455 17,800 -1,500 Descending Atlanta Center
10:55AM 34.3764 -85.2872 147° Southeast 381 438 16,600 -1,680 Descending Atlanta Center
10:56AM 34.3083 -85.2308 146° Southeast 356 410 14,500 -1,800 Descending Atlanta Center
10:57AM 34.2253 -85.1669 148° Southeast 356 410 13,100 -780 Descending Atlanta Center
10:58AM 34.1486 -85.0981 143° Southeast 350 403 13,000 -60 Descending Atlanta Center
10:59AM 34.0764 -85.0119 135° Southeast 345 397 13,000 -300 Level Atlanta Center
11:00AM 34.0081 -84.9483 142° Southeast 319 367 12,500 -900 Descending Atlanta Center
11:01AM 33.9225 -84.9325 171° South 303 349 11,300 -1,440 Descending Atlanta Center
11:02AM 33.8411 -84.9192 172° South 303 349 9,700 -1,200 Descending Atlanta Center
11:03AM 33.7703 -84.9083 173° South 276 318 9,000 -360 Descending Atlanta Center
11:04AM 33.7119 -84.8953 169° South 243 280 9,000 -720 Level Atlanta Center
11:05AM 33.6667 -84.8667 152° Southeast 211 243 7,700 -1,380 Descending Atlanta TRACON
11:06AM 33.6333 -84.8333 140° Southeast 199 229 6,500 -1,020 Descending Atlanta TRACON
11:07AM 33.6333 -84.7667 90° East 188 216 5,700 -780 Descending Atlanta TRACON
11:08AM 33.6333 -84.7000 90° East 188 216 5,000 -780 Descending Atlanta TRACON
11:09AM 33.6333 -84.6500 90° East 186 214 4,200 -900 Descending Atlanta TRACON
11:10AM 33.6333 -84.5833 90° East 169 194 3,300 -900 Descending Atlanta TRACON
11:11AM 33.6333 -84.5333 90° East 154 177 2,500 -780 Descending Atlanta TRACON
11:12AM 33.6333 -84.4833 90° East 130 150 1,800 -720 Descending Atlanta TRACON
11:14AM 33.6367 -84.4279 North  Level Estimated
11:21AM 33.6367 -84.4279 North  Level Estimated
11:22AM 33.6367 -84.4279 North  Level Estimated